Denny, Texas
Current Conditions -  °F | °C
As of 5:55 PM on Friday 31 Oct 2014 (Local Time) from KLXY Reporting Station
Clear Clear  
Wind Chill: 64°   Ceiling: Unl
Heat Index: 64°   Visibility: 10mi
Dew Point: 40°   Wind: 8mph
Humidity: 42%   Direction: 10°N
Pressure: 30.26"   Gusts: 20mph
Location:  31.3327°N, 96.6013°W
Report Text: KLXY 312255Z AUTO 01007G17KT 10SM CLR 18/05 A3026 RMK AO2 T01790047
Loading
Personal Weather Stations






























Interactive Weather Map
Tropical Storm Tracking
New forecast layout! Learn more

10-Day Weather Forecast

Advertisements
Track Severe Weather on mobile